< Typhoon 196824 1968 Season Typhoon 196826 >
Typhoon 196825 (MAMIE)
General InformationTrack Information on Google Maps || Disaster Info.ResourceGoogle EarthGE AnimationAtom FeedGeoJSON
Detalied Best Track (Time Zone = UTC)
Year Month Day Hour Lat. Long. Pressure (hPa) Wind (kt) Class Image Chart
1968 11 9 06 7.9 137.5 1002 0 2 -- Chart
1968 11 9 12 8.7 137.2 1002 0 2 -- Chart
1968 11 9 18 9.5 137.0 1002 0 2 -- Chart
1968 11 10 00 10.2 136.7 1002 0 2 -- Chart
1968 11 10 06 10.4 136.8 1002 0 2 -- Chart
1968 11 10 12 10.7 137.0 1002 0 2 -- Chart
1968 11 10 18 11.0 137.2 1002 0 2 -- Chart
1968 11 11 00 11.3 137.5 1002 0 2 -- Chart
1968 11 11 06 12.0 137.7 1002 0 2 -- Chart
1968 11 11 12 12.7 137.5 1002 0 2 -- Chart
1968 11 11 18 13.5 137.1 1000 0 2 -- Chart
1968 11 12 00 14.3 136.6 1000 0 2 -- Chart
1968 11 12 06 14.3 136.1 1002 0 2 -- Chart
1968 11 12 12 14.0 135.5 1002 0 2 -- Chart
1968 11 12 18 13.7 135.0 1004 0 2 -- Chart
1968 11 13 00 13.4 134.7 1006 0 2 -- Chart
1968 11 13 06 13.3 134.6 1004 0 2 -- Chart
1968 11 13 12 13.0 134.5 1002 0 2 -- Chart
1968 11 13 18 13.0 133.5 998 0 2 -- Chart
1968 11 14 00 13.0 132.5 995 0 2 -- Chart
1968 11 14 06 13.0 131.8 995 0 2 -- Chart
1968 11 14 12 13.0 131.3 995 0 2 -- Chart
1968 11 14 18 12.7 130.7 998 0 2 -- Chart
1968 11 15 00 12.7 130.0 1000 0 2 -- Chart
1968 11 15 06 13.0 130.2 1000 0 2 -- Chart
1968 11 15 12 12.7 130.3 998 0 2 -- Chart
1968 11 15 18 12.8 129.9 998 0 2 -- Chart
1968 11 16 00 12.8 129.7 995 0 2 -- Chart
1968 11 16 06 12.4 130.0 992 0 2 -- Chart
1968 11 16 12 12.1 129.7 992 0 2 -- Chart
1968 11 16 18 12.2 129.3 990 0 2 -- Chart
1968 11 17 00 11.9 128.8 985 0 9 -- Chart
1968 11 17 06 11.4 128.4 985 0 9 -- Chart
1968 11 17 12 11.0 128.1 985 0 9 -- Chart
1968 11 17 18 10.7 128.2 980 0 9 -- Chart
1968 11 18 00 10.5 128.0 975 0 9 -- Chart
1968 11 18 06 10.6 127.4 975 0 9 -- Chart
1968 11 18 12 10.3 126.5 975 0 9 -- Chart
1968 11 18 18 10.0 125.6 975 0 9 -- Chart
1968 11 19 00 9.8 124.6 975 0 9 -- Chart
1968 11 19 06 9.4 123.5 980 0 9 -- Chart
1968 11 19 12 9.4 122.3 980 0 9 -- Chart
1968 11 19 18 9.6 121.4 980 0 9 -- Chart
1968 11 20 00 9.7 120.0 975 0 9 -- Chart
1968 11 20 06 9.7 118.8 975 0 9 -- Chart
1968 11 20 12 9.9 117.7 975 0 9 -- Chart
1968 11 20 18 10.4 116.5 975 0 9 -- Chart
1968 11 21 00 10.7 115.5 975 0 9 -- Chart
1968 11 21 06 11.0 114.7 975 0 9 -- Chart
1968 11 21 12 11.5 114.1 975 0 9 -- Chart
1968 11 21 18 11.6 113.5 975 0 9 -- Chart
1968 11 22 00 11.5 112.9 975 0 9 -- Chart
1968 11 22 06 11.3 112.1 975 0 9 -- Chart
1968 11 22 12 11.4 111.9 975 0 9 -- Chart
1968 11 22 18 11.4 111.7 975 0 9 -- Chart
1968 11 23 00 11.5 111.3 975 0 9 -- Chart
1968 11 23 06 11.5 110.5 975 0 9 -- Chart
1968 11 23 12 11.5 109.7 975 0 9 -- Chart
1968 11 23 18 11.6 108.8 985 0 9 -- Chart
1968 11 24 00 11.3 107.7 998 0 2 -- Chart
1968 11 24 06 10.9 106.7 1002 0 2 -- Chart
1968 11 24 12 10.5 105.5 1008 0 2 -- Chart
1968 11 24 18 10.2 104.6 1008 0 2 -- Chart
1968 11 25 00 10.0 103.5 1008 0 2 -- Chart
Japan Meteorological Agency Best Track Data | Correction Date : 1989-06-01
< Typhoon 196824 1968 Season Typhoon 196826 >

Help